sensor_id;sensor_type;location;lat;lon;timestamp;P1;durP1;ratioP1;P2;durP2;ratioP2
20629;SDS011;17386;43.846;25.950;2023-04-03T00:01:07;3.10;;;1.63;;
20629;SDS011;17386;43.846;25.950;2023-04-03T00:03:33;4.03;;;1.70;;
20629;SDS011;17386;43.846;25.950;2023-04-03T00:06:00;4.85;;;1.70;;
20629;SDS011;17386;43.846;25.950;2023-04-03T00:08:25;3.17;;;1.67;;
20629;SDS011;17386;43.846;25.950;2023-04-03T00:10:51;2.88;;;1.60;;
20629;SDS011;17386;43.846;25.950;2023-04-03T00:13:16;2.83;;;1.50;;
20629;SDS011;17386;43.846;25.950;2023-04-03T00:15:42;2.30;;;1.30;;
20629;SDS011;17386;43.846;25.950;2023-04-03T00:18:08;2.05;;;1.40;;
20629;SDS011;17386;43.846;25.950;2023-04-03T00:20:34;2.80;;;1.70;;
20629;SDS011;17386;43.846;25.950;2023-04-03T00:23:00;2.40;;;1.35;;
20629;SDS011;17386;43.846;25.950;2023-04-03T00:25:26;2.95;;;1.17;;
20629;SDS011;17386;43.846;25.950;2023-04-03T00:27:52;1.98;;;1.27;;
20629;SDS011;17386;43.846;25.950;2023-04-03T00:30:18;3.35;;;1.55;;
20629;SDS011;17386;43.846;25.950;2023-04-03T00:32:46;3.08;;;1.65;;
20629;SDS011;17386;43.846;25.950;2023-04-03T00:37:40;4.60;;;1.85;;
20629;SDS011;17386;43.846;25.950;2023-04-03T00:40:07;3.38;;;1.73;;
20629;SDS011;17386;43.846;25.950;2023-04-03T00:42:35;3.97;;;1.52;;
20629;SDS011;17386;43.846;25.950;2023-04-03T00:47:27;2.75;;;1.60;;
20629;SDS011;17386;43.846;25.950;2023-04-03T00:49:54;2.25;;;1.50;;
20629;SDS011;17386;43.846;25.950;2023-04-03T00:52:21;3.30;;;1.75;;
20629;SDS011;17386;43.846;25.950;2023-04-03T00:54:50;5.22;;;1.52;;
20629;SDS011;17386;43.846;25.950;2023-04-03T00:57:19;2.47;;;1.27;;
20629;SDS011;17386;43.846;25.950;2023-04-03T01:02:15;3.55;;;1.85;;
20629;SDS011;17386;43.846;25.950;2023-04-03T01:04:42;2.08;;;1.33;;
20629;SDS011;17386;43.846;25.950;2023-04-03T01:07:15;4.90;;;1.63;;
20629;SDS011;17386;43.846;25.950;2023-04-03T01:09:44;3.63;;;1.83;;
20629;SDS011;17386;43.846;25.950;2023-04-03T01:14:45;3.30;;;1.50;;
20629;SDS011;17386;43.846;25.950;2023-04-03T01:17:30;3.63;;;1.90;;
20629;SDS011;17386;43.846;25.950;2023-04-03T01:22:34;3.95;;;2.05;;
20629;SDS011;17386;43.846;25.950;2023-04-03T01:25:35;4.03;;;1.98;;
20629;SDS011;17386;43.846;25.950;2023-04-03T01:28:01;4.63;;;2.33;;
20629;SDS011;17386;43.846;25.950;2023-04-03T01:30:30;3.60;;;1.98;;
20629;SDS011;17386;43.846;25.950;2023-04-03T01:32:58;7.43;;;2.30;;
20629;SDS011;17386;43.846;25.950;2023-04-03T01:35:23;5.82;;;2.75;;
20629;SDS011;17386;43.846;25.950;2023-04-03T01:37:49;5.10;;;2.80;;
20629;SDS011;17386;43.846;25.950;2023-04-03T01:40:14;5.50;;;2.85;;
20629;SDS011;17386;43.846;25.950;2023-04-03T01:42:40;4.65;;;2.45;;
20629;SDS011;17386;43.846;25.950;2023-04-03T01:45:05;3.92;;;2.00;;
20629;SDS011;17386;43.846;25.950;2023-04-03T01:47:31;3.33;;;1.98;;
20629;SDS011;17386;43.846;25.950;2023-04-03T01:49:57;2.92;;;2.05;;
20629;SDS011;17386;43.846;25.950;2023-04-03T01:52:22;4.32;;;1.83;;
20629;SDS011;17386;43.846;25.950;2023-04-03T01:54:48;2.75;;;1.83;;
20629;SDS011;17386;43.846;25.950;2023-04-03T01:57:13;6.20;;;2.13;;
20629;SDS011;17386;43.846;25.950;2023-04-03T01:59:40;3.38;;;2.13;;
20629;SDS011;17386;43.846;25.950;2023-04-03T02:02:06;3.13;;;1.80;;
20629;SDS011;17386;43.846;25.950;2023-04-03T02:04:31;3.47;;;2.13;;
20629;SDS011;17386;43.846;25.950;2023-04-03T02:06:57;5.68;;;2.53;;
20629;SDS011;17386;43.846;25.950;2023-04-03T02:09:22;3.40;;;2.13;;
20629;SDS011;17386;43.846;25.950;2023-04-03T02:11:47;4.15;;;2.42;;
20629;SDS011;17386;43.846;25.950;2023-04-03T02:14:13;2.38;;;1.70;;
20629;SDS011;17386;43.846;25.950;2023-04-03T02:16:38;4.00;;;1.98;;
20629;SDS011;17386;43.846;25.950;2023-04-03T02:19:04;6.25;;;2.20;;
20629;SDS011;17386;43.846;25.950;2023-04-03T02:21:30;3.80;;;2.00;;
20629;SDS011;17386;43.846;25.950;2023-04-03T02:23:55;5.30;;;1.90;;
20629;SDS011;17386;43.846;25.950;2023-04-03T02:26:21;5.72;;;2.10;;
20629;SDS011;17386;43.846;25.950;2023-04-03T02:28:46;2.85;;;2.05;;
20629;SDS011;17386;43.846;25.950;2023-04-03T02:31:12;4.22;;;2.08;;
20629;SDS011;17386;43.846;25.950;2023-04-03T02:33:37;3.63;;;2.20;;
20629;SDS011;17386;43.846;25.950;2023-04-03T02:36:04;4.60;;;2.30;;
20629;SDS011;17386;43.846;25.950;2023-04-03T02:38:30;5.80;;;2.65;;
20629;SDS011;17386;43.846;25.950;2023-04-03T02:40:59;4.40;;;2.40;;
20629;SDS011;17386;43.846;25.950;2023-04-03T02:43:30;6.18;;;2.75;;
20629;SDS011;17386;43.846;25.950;2023-04-03T02:45:55;8.23;;;3.40;;
20629;SDS011;17386;43.846;25.950;2023-04-03T02:48:21;9.25;;;4.05;;
20629;SDS011;17386;43.846;25.950;2023-04-03T02:50:47;12.18;;;4.72;;
20629;SDS011;17386;43.846;25.950;2023-04-03T02:53:12;9.55;;;4.30;;
20629;SDS011;17386;43.846;25.950;2023-04-03T02:55:38;7.75;;;3.95;;
20629;SDS011;17386;43.846;25.950;2023-04-03T02:58:03;10.43;;;4.13;;
20629;SDS011;17386;43.846;25.950;2023-04-03T03:00:29;8.93;;;3.42;;
20629;SDS011;17386;43.846;25.950;2023-04-03T03:02:55;7.78;;;3.05;;
20629;SDS011;17386;43.846;25.950;2023-04-03T03:05:20;8.55;;;3.35;;
20629;SDS011;17386;43.846;25.950;2023-04-03T03:07:46;7.45;;;3.88;;
20629;SDS011;17386;43.846;25.950;2023-04-03T03:10:12;5.57;;;3.10;;
20629;SDS011;17386;43.846;25.950;2023-04-03T03:12:37;5.93;;;3.15;;
20629;SDS011;17386;43.846;25.950;2023-04-03T03:15:03;6.40;;;3.05;;
20629;SDS011;17386;43.846;25.950;2023-04-03T03:17:28;4.90;;;2.85;;
20629;SDS011;17386;43.846;25.950;2023-04-03T03:19:54;5.55;;;3.00;;
20629;SDS011;17386;43.846;25.950;2023-04-03T03:22:19;3.97;;;2.58;;
20629;SDS011;17386;43.846;25.950;2023-04-03T03:24:45;7.05;;;3.30;;
20629;SDS011;17386;43.846;25.950;2023-04-03T03:27:10;7.57;;;3.55;;
20629;SDS011;17386;43.846;25.950;2023-04-03T03:29:37;5.90;;;2.72;;
20629;SDS011;17386;43.846;25.950;2023-04-03T03:32:02;6.07;;;2.90;;
20629;SDS011;17386;43.846;25.950;2023-04-03T03:34:28;6.32;;;3.08;;
20629;SDS011;17386;43.846;25.950;2023-04-03T03:36:53;5.95;;;3.38;;
20629;SDS011;17386;43.846;25.950;2023-04-03T03:39:18;5.55;;;3.13;;
20629;SDS011;17386;43.846;25.950;2023-04-03T03:41:44;6.22;;;3.25;;
20629;SDS011;17386;43.846;25.950;2023-04-03T03:44:09;7.13;;;3.60;;
20629;SDS011;17386;43.846;25.950;2023-04-03T03:46:35;11.20;;;4.03;;
20629;SDS011;17386;43.846;25.950;2023-04-03T03:49:00;8.13;;;3.63;;
20629;SDS011;17386;43.846;25.950;2023-04-03T03:51:25;7.28;;;3.70;;
20629;SDS011;17386;43.846;25.950;2023-04-03T03:53:51;8.48;;;4.53;;
20629;SDS011;17386;43.846;25.950;2023-04-03T03:56:16;11.85;;;5.38;;
20629;SDS011;17386;43.846;25.950;2023-04-03T03:58:42;8.95;;;4.07;;
20629;SDS011;17386;43.846;25.950;2023-04-03T04:01:07;9.27;;;3.90;;
20629;SDS011;17386;43.846;25.950;2023-04-03T04:03:32;7.13;;;3.45;;
20629;SDS011;17386;43.846;25.950;2023-04-03T04:05:58;9.05;;;3.90;;
20629;SDS011;17386;43.846;25.950;2023-04-03T04:08:24;8.32;;;3.85;;
20629;SDS011;17386;43.846;25.950;2023-04-03T04:10:50;7.35;;;3.47;;
20629;SDS011;17386;43.846;25.950;2023-04-03T04:13:15;6.22;;;3.55;;
20629;SDS011;17386;43.846;25.950;2023-04-03T04:15:41;7.55;;;4.00;;
20629;SDS011;17386;43.846;25.950;2023-04-03T04:18:08;5.63;;;3.08;;
20629;SDS011;17386;43.846;25.950;2023-04-03T04:20:33;8.15;;;4.32;;
20629;SDS011;17386;43.846;25.950;2023-04-03T04:22:58;7.45;;;3.67;;
20629;SDS011;17386;43.846;25.950;2023-04-03T04:25:24;6.00;;;3.55;;
20629;SDS011;17386;43.846;25.950;2023-04-03T04:27:49;9.05;;;3.83;;
20629;SDS011;17386;43.846;25.950;2023-04-03T04:30:15;8.93;;;3.72;;
20629;SDS011;17386;43.846;25.950;2023-04-03T04:32:40;10.00;;;3.90;;
20629;SDS011;17386;43.846;25.950;2023-04-03T04:35:06;10.13;;;4.63;;
20629;SDS011;17386;43.846;25.950;2023-04-03T04:37:32;7.47;;;4.13;;
20629;SDS011;17386;43.846;25.950;2023-04-03T04:39:57;11.52;;;3.95;;
20629;SDS011;17386;43.846;25.950;2023-04-03T04:42:23;7.68;;;3.58;;
20629;SDS011;17386;43.846;25.950;2023-04-03T04:44:48;14.75;;;4.70;;
20629;SDS011;17386;43.846;25.950;2023-04-03T04:47:13;11.75;;;4.63;;
20629;SDS011;17386;43.846;25.950;2023-04-03T04:49:39;8.07;;;4.25;;
20629;SDS011;17386;43.846;25.950;2023-04-03T04:52:05;9.35;;;4.30;;
20629;SDS011;17386;43.846;25.950;2023-04-03T04:54:31;8.90;;;4.20;;
20629;SDS011;17386;43.846;25.950;2023-04-03T04:56:57;11.98;;;3.97;;
20629;SDS011;17386;43.846;25.950;2023-04-03T04:59:22;10.85;;;4.97;;
20629;SDS011;17386;43.846;25.950;2023-04-03T05:01:48;18.67;;;5.63;;
20629;SDS011;17386;43.846;25.950;2023-04-03T05:04:13;13.38;;;6.13;;
20629;SDS011;17386;43.846;25.950;2023-04-03T05:06:38;19.85;;;6.85;;
20629;SDS011;17386;43.846;25.950;2023-04-03T05:09:04;12.93;;;6.28;;
20629;SDS011;17386;43.846;25.950;2023-04-03T05:11:30;24.70;;;6.78;;
20629;SDS011;17386;43.846;25.950;2023-04-03T05:13:55;14.88;;;5.10;;
20629;SDS011;17386;43.846;25.950;2023-04-03T05:16:21;13.90;;;5.57;;
20629;SDS011;17386;43.846;25.950;2023-04-03T05:18:47;8.85;;;5.07;;
20629;SDS011;17386;43.846;25.950;2023-04-03T05:21:13;15.90;;;6.40;;
20629;SDS011;17386;43.846;25.950;2023-04-03T05:23:38;17.67;;;6.30;;
20629;SDS011;17386;43.846;25.950;2023-04-03T05:26:04;15.88;;;7.07;;
20629;SDS011;17386;43.846;25.950;2023-04-03T05:28:30;14.18;;;6.38;;
20629;SDS011;17386;43.846;25.950;2023-04-03T05:30:56;22.15;;;7.03;;
20629;SDS011;17386;43.846;25.950;2023-04-03T05:33:23;20.58;;;7.68;;
20629;SDS011;17386;43.846;25.950;2023-04-03T05:35:51;17.08;;;7.60;;
20629;SDS011;17386;43.846;25.950;2023-04-03T05:38:16;16.73;;;7.53;;
20629;SDS011;17386;43.846;25.950;2023-04-03T05:40:42;20.25;;;7.88;;
20629;SDS011;17386;43.846;25.950;2023-04-03T05:43:07;19.13;;;8.13;;
20629;SDS011;17386;43.846;25.950;2023-04-03T05:45:33;17.15;;;6.60;;
20629;SDS011;17386;43.846;25.950;2023-04-03T05:47:58;17.00;;;6.75;;
20629;SDS011;17386;43.846;25.950;2023-04-03T05:50:24;21.15;;;9.48;;
20629;SDS011;17386;43.846;25.950;2023-04-03T05:52:49;32.05;;;8.30;;
20629;SDS011;17386;43.846;25.950;2023-04-03T05:55:17;18.08;;;7.05;;
20629;SDS011;17386;43.846;25.950;2023-04-03T05:57:43;14.93;;;6.40;;
20629;SDS011;17386;43.846;25.950;2023-04-03T06:00:10;13.45;;;6.32;;
20629;SDS011;17386;43.846;25.950;2023-04-03T06:02:38;14.18;;;6.75;;
20629;SDS011;17386;43.846;25.950;2023-04-03T06:05:04;20.08;;;6.60;;
20629;SDS011;17386;43.846;25.950;2023-04-03T06:07:30;12.02;;;5.35;;
20629;SDS011;17386;43.846;25.950;2023-04-03T06:09:56;13.82;;;4.78;;
20629;SDS011;17386;43.846;25.950;2023-04-03T06:12:22;11.88;;;5.88;;
20629;SDS011;17386;43.846;25.950;2023-04-03T06:14:48;8.38;;;4.85;;
20629;SDS011;17386;43.846;25.950;2023-04-03T06:17:16;12.18;;;5.10;;
20629;SDS011;17386;43.846;25.950;2023-04-03T06:19:43;15.85;;;4.85;;
20629;SDS011;17386;43.846;25.950;2023-04-03T06:22:09;11.27;;;4.50;;
20629;SDS011;17386;43.846;25.950;2023-04-03T06:24:36;12.15;;;4.78;;
20629;SDS011;17386;43.846;25.950;2023-04-03T06:27:02;12.43;;;4.55;;
20629;SDS011;17386;43.846;25.950;2023-04-03T06:29:27;16.38;;;6.03;;
20629;SDS011;17386;43.846;25.950;2023-04-03T06:31:53;8.43;;;4.20;;
20629;SDS011;17386;43.846;25.950;2023-04-03T06:34:18;10.32;;;5.07;;
20629;SDS011;17386;43.846;25.950;2023-04-03T06:36:44;10.45;;;4.38;;
20629;SDS011;17386;43.846;25.950;2023-04-03T06:39:13;8.10;;;3.80;;
20629;SDS011;17386;43.846;25.950;2023-04-03T06:41:41;13.20;;;4.30;;
20629;SDS011;17386;43.846;25.950;2023-04-03T06:44:06;8.90;;;4.10;;
20629;SDS011;17386;43.846;25.950;2023-04-03T06:46:35;12.30;;;5.47;;
20629;SDS011;17386;43.846;25.950;2023-04-03T06:49:02;9.70;;;4.47;;
20629;SDS011;17386;43.846;25.950;2023-04-03T06:51:28;9.52;;;3.97;;
20629;SDS011;17386;43.846;25.950;2023-04-03T06:53:55;10.68;;;3.53;;
20629;SDS011;17386;43.846;25.950;2023-04-03T06:56:23;9.60;;;3.75;;
20629;SDS011;17386;43.846;25.950;2023-04-03T06:58:50;6.53;;;3.45;;
20629;SDS011;17386;43.846;25.950;2023-04-03T07:01:16;7.18;;;3.10;;
20629;SDS011;17386;43.846;25.950;2023-04-03T07:06:10;5.65;;;2.95;;
20629;SDS011;17386;43.846;25.950;2023-04-03T07:08:37;6.95;;;3.40;;
20629;SDS011;17386;43.846;25.950;2023-04-03T07:11:03;6.80;;;2.90;;
20629;SDS011;17386;43.846;25.950;2023-04-03T07:13:30;6.13;;;2.80;;
20629;SDS011;17386;43.846;25.950;2023-04-03T07:15:55;4.85;;;2.58;;
20629;SDS011;17386;43.846;25.950;2023-04-03T07:18:21;6.53;;;3.72;;
20629;SDS011;17386;43.846;25.950;2023-04-03T07:20:47;11.10;;;3.80;;
20629;SDS011;17386;43.846;25.950;2023-04-03T07:23:13;9.95;;;4.68;;
20629;SDS011;17386;43.846;25.950;2023-04-03T07:25:45;7.07;;;2.95;;
20629;SDS011;17386;43.846;25.950;2023-04-03T07:28:12;9.68;;;4.10;;
20629;SDS011;17386;43.846;25.950;2023-04-03T07:33:10;6.30;;;3.22;;
20629;SDS011;17386;43.846;25.950;2023-04-03T07:35:36;11.55;;;4.65;;
20629;SDS011;17386;43.846;25.950;2023-04-03T07:38:02;5.95;;;3.10;;
20629;SDS011;17386;43.846;25.950;2023-04-03T07:40:27;6.63;;;2.80;;
20629;SDS011;17386;43.846;25.950;2023-04-03T07:42:53;5.05;;;2.95;;
20629;SDS011;17386;43.846;25.950;2023-04-03T07:45:19;5.15;;;2.90;;
20629;SDS011;17386;43.846;25.950;2023-04-03T07:47:45;9.13;;;5.95;;
20629;SDS011;17386;43.846;25.950;2023-04-03T07:50:10;7.30;;;4.75;;
20629;SDS011;17386;43.846;25.950;2023-04-03T07:52:36;6.68;;;3.40;;
20629;SDS011;17386;43.846;25.950;2023-04-03T07:55:01;5.43;;;2.83;;
20629;SDS011;17386;43.846;25.950;2023-04-03T07:57:27;13.75;;;3.55;;
20629;SDS011;17386;43.846;25.950;2023-04-03T07:59:52;5.97;;;2.85;;
20629;SDS011;17386;43.846;25.950;2023-04-03T08:02:18;6.32;;;3.33;;
20629;SDS011;17386;43.846;25.950;2023-04-03T08:04:43;7.18;;;3.92;;
20629;SDS011;17386;43.846;25.950;2023-04-03T08:07:09;10.52;;;5.28;;
20629;SDS011;17386;43.846;25.950;2023-04-03T08:09:34;9.70;;;4.20;;
20629;SDS011;17386;43.846;25.950;2023-04-03T08:12:00;13.95;;;4.97;;
20629;SDS011;17386;43.846;25.950;2023-04-03T08:14:26;9.05;;;4.30;;
20629;SDS011;17386;43.846;25.950;2023-04-03T08:16:51;11.35;;;4.15;;
20629;SDS011;17386;43.846;25.950;2023-04-03T08:19:17;11.15;;;4.85;;
20629;SDS011;17386;43.846;25.950;2023-04-03T08:21:43;8.73;;;4.18;;
20629;SDS011;17386;43.846;25.950;2023-04-03T08:24:10;10.02;;;4.47;;
20629;SDS011;17386;43.846;25.950;2023-04-03T08:26:36;9.27;;;4.60;;
20629;SDS011;17386;43.846;25.950;2023-04-03T08:29:01;12.18;;;4.78;;
20629;SDS011;17386;43.846;25.950;2023-04-03T08:31:27;12.20;;;5.35;;
20629;SDS011;17386;43.846;25.950;2023-04-03T08:33:53;9.10;;;4.13;;
20629;SDS011;17386;43.846;25.950;2023-04-03T08:36:22;7.50;;;3.72;;
20629;SDS011;17386;43.846;25.950;2023-04-03T08:38:50;12.65;;;4.93;;
20629;SDS011;17386;43.846;25.950;2023-04-03T08:41:20;6.93;;;3.53;;
20629;SDS011;17386;43.846;25.950;2023-04-03T08:44:03;9.32;;;4.60;;
20629;SDS011;17386;43.846;25.950;2023-04-03T08:46:40;7.85;;;3.67;;
20629;SDS011;17386;43.846;25.950;2023-04-03T08:49:33;8.25;;;3.85;;
20629;SDS011;17386;43.846;25.950;2023-04-03T08:52:08;7.88;;;3.70;;
20629;SDS011;17386;43.846;25.950;2023-04-03T08:54:41;7.90;;;3.63;;
20629;SDS011;17386;43.846;25.950;2023-04-03T08:57:20;6.20;;;3.70;;
20629;SDS011;17386;43.846;25.950;2023-04-03T09:00:00;8.15;;;3.40;;
20629;SDS011;17386;43.846;25.950;2023-04-03T09:02:31;8.35;;;3.67;;
20629;SDS011;17386;43.846;25.950;2023-04-03T09:08:37;10.27;;;3.58;;
20629;SDS011;17386;43.846;25.950;2023-04-03T09:13:52;5.93;;;3.10;;
20629;SDS011;17386;43.846;25.950;2023-04-03T09:16:47;7.97;;;3.58;;
20629;SDS011;17386;43.846;25.950;2023-04-03T09:21:58;9.48;;;4.03;;
20629;SDS011;17386;43.846;25.950;2023-04-03T09:24:45;14.13;;;5.07;;
20629;SDS011;17386;43.846;25.950;2023-04-03T09:27:17;11.10;;;4.07;;
20629;SDS011;17386;43.846;25.950;2023-04-03T09:29:43;13.07;;;4.72;;
20629;SDS011;17386;43.846;25.950;2023-04-03T09:34:58;14.00;;;4.25;;
20629;SDS011;17386;43.846;25.950;2023-04-03T09:37:33;13.95;;;4.40;;
20629;SDS011;17386;43.846;25.950;2023-04-03T09:42:51;11.98;;;3.35;;
20629;SDS011;17386;43.846;25.950;2023-04-03T09:45:36;10.48;;;3.72;;
20629;SDS011;17386;43.846;25.950;2023-04-03T09:50:30;9.52;;;3.67;;
20629;SDS011;17386;43.846;25.950;2023-04-03T09:52:56;12.20;;;3.92;;
20629;SDS011;17386;43.846;25.950;2023-04-03T09:55:22;9.05;;;3.58;;
20629;SDS011;17386;43.846;25.950;2023-04-03T09:57:54;7.05;;;3.17;;
20629;SDS011;17386;43.846;25.950;2023-04-03T10:00:38;12.23;;;3.10;;
20629;SDS011;17386;43.846;25.950;2023-04-03T10:03:05;16.40;;;3.28;;
20629;SDS011;17386;43.846;25.950;2023-04-03T10:05:47;9.52;;;3.30;;
20629;SDS011;17386;43.846;25.950;2023-04-03T10:10:38;13.40;;;3.75;;
20629;SDS011;17386;43.846;25.950;2023-04-03T10:13:10;8.57;;;3.42;;
20629;SDS011;17386;43.846;25.950;2023-04-03T10:15:39;5.72;;;2.67;;
20629;SDS011;17386;43.846;25.950;2023-04-03T10:18:15;7.93;;;3.30;;
20629;SDS011;17386;43.846;25.950;2023-04-03T10:20:47;5.88;;;2.90;;
20629;SDS011;17386;43.846;25.950;2023-04-03T10:28:56;7.25;;;3.10;;
20629;SDS011;17386;43.846;25.950;2023-04-03T10:50:48;5.38;;;2.55;;
20629;SDS011;17386;43.846;25.950;2023-04-03T10:59:25;6.50;;;3.08;;
20629;SDS011;17386;43.846;25.950;2023-04-03T11:01:56;3.92;;;2.08;;
20629;SDS011;17386;43.846;25.950;2023-04-03T11:04:30;4.40;;;2.40;;
20629;SDS011;17386;43.846;25.950;2023-04-03T11:07:18;11.63;;;2.55;;
20629;SDS011;17386;43.846;25.950;2023-04-03T11:09:48;11.05;;;3.70;;
20629;SDS011;17386;43.846;25.950;2023-04-03T11:12:27;4.07;;;2.25;;
20629;SDS011;17386;43.846;25.950;2023-04-03T11:14:58;3.00;;;2.03;;
20629;SDS011;17386;43.846;25.950;2023-04-03T11:17:35;8.75;;;2.42;;
20629;SDS011;17386;43.846;25.950;2023-04-03T11:20:16;16.27;;;2.92;;
20629;SDS011;17386;43.846;25.950;2023-04-03T11:22:50;6.00;;;2.90;;
20629;SDS011;17386;43.846;25.950;2023-04-03T11:25:20;7.00;;;3.45;;
20629;SDS011;17386;43.846;25.950;2023-04-03T11:27:55;8.93;;;2.50;;
20629;SDS011;17386;43.846;25.950;2023-04-03T11:36:00;11.05;;;2.63;;
20629;SDS011;17386;43.846;25.950;2023-04-03T11:38:38;7.40;;;2.45;;
20629;SDS011;17386;43.846;25.950;2023-04-03T11:41:08;7.13;;;2.30;;
20629;SDS011;17386;43.846;25.950;2023-04-03T11:43:54;6.53;;;2.28;;
20629;SDS011;17386;43.846;25.950;2023-04-03T11:58:20;8.63;;;2.28;;
20629;SDS011;17386;43.846;25.950;2023-04-03T12:13:39;2.80;;;1.65;;
20629;SDS011;17386;43.846;25.950;2023-04-03T12:16:28;3.55;;;1.65;;
20629;SDS011;17386;43.846;25.950;2023-04-03T12:26:41;3.83;;;1.85;;
20629;SDS011;17386;43.846;25.950;2023-04-03T12:48:46;5.78;;;2.17;;
20629;SDS011;17386;43.846;25.950;2023-04-03T12:51:20;8.80;;;1.90;;
20629;SDS011;17386;43.846;25.950;2023-04-03T12:53:52;10.05;;;3.15;;
20629;SDS011;17386;43.846;25.950;2023-04-03T12:56:27;7.25;;;2.55;;
20629;SDS011;17386;43.846;25.950;2023-04-03T12:59:13;6.45;;;2.60;;
20629;SDS011;17386;43.846;25.950;2023-04-03T13:01:53;8.35;;;2.58;;
20629;SDS011;17386;43.846;25.950;2023-04-03T13:04:20;11.95;;;2.67;;
20629;SDS011;17386;43.846;25.950;2023-04-03T13:06:45;7.93;;;2.80;;
20629;SDS011;17386;43.846;25.950;2023-04-03T13:09:24;8.30;;;2.40;;
20629;SDS011;17386;43.846;25.950;2023-04-03T13:12:07;9.75;;;2.92;;
20629;SDS011;17386;43.846;25.950;2023-04-03T13:14:36;5.93;;;2.60;;
20629;SDS011;17386;43.846;25.950;2023-04-03T13:17:04;8.18;;;2.28;;
20629;SDS011;17386;43.846;25.950;2023-04-03T13:19:37;4.82;;;2.17;;
20629;SDS011;17386;43.846;25.950;2023-04-03T13:24:48;5.72;;;2.55;;
20629;SDS011;17386;43.846;25.950;2023-04-03T13:27:15;5.07;;;2.40;;
20629;SDS011;17386;43.846;25.950;2023-04-03T13:29:42;9.57;;;2.63;;
20629;SDS011;17386;43.846;25.950;2023-04-03T13:32:13;5.95;;;2.55;;
20629;SDS011;17386;43.846;25.950;2023-04-03T13:34:45;7.32;;;3.15;;
20629;SDS011;17386;43.846;25.950;2023-04-03T13:37:30;10.52;;;3.50;;
20629;SDS011;17386;43.846;25.950;2023-04-03T13:42:27;8.70;;;3.70;;
20629;SDS011;17386;43.846;25.950;2023-04-03T13:48:17;11.57;;;3.60;;
20629;SDS011;17386;43.846;25.950;2023-04-03T13:51:44;10.07;;;4.15;;
20629;SDS011;17386;43.846;25.950;2023-04-03T13:53:44;9.60;;;4.45;;
20629;SDS011;17386;43.846;25.950;2023-04-03T13:56:33;7.03;;;3.67;;
20629;SDS011;17386;43.846;25.950;2023-04-03T13:59:05;7.82;;;4.05;;
20629;SDS011;17386;43.846;25.950;2023-04-03T14:02:11;6.50;;;3.45;;
20629;SDS011;17386;43.846;25.950;2023-04-03T14:04:45;9.13;;;3.58;;
20629;SDS011;17386;43.846;25.950;2023-04-03T14:07:21;10.48;;;3.63;;
20629;SDS011;17386;43.846;25.950;2023-04-03T14:09:49;12.88;;;5.15;;
20629;SDS011;17386;43.846;25.950;2023-04-03T14:12:26;7.75;;;3.97;;
20629;SDS011;17386;43.846;25.950;2023-04-03T14:14:56;11.48;;;5.40;;
20629;SDS011;17386;43.846;25.950;2023-04-03T14:17:22;10.27;;;4.50;;
20629;SDS011;17386;43.846;25.950;2023-04-03T14:19:50;13.38;;;4.93;;
20629;SDS011;17386;43.846;25.950;2023-04-03T14:24:50;12.35;;;4.50;;
20629;SDS011;17386;43.846;25.950;2023-04-03T14:29:50;10.77;;;4.70;;
20629;SDS011;17386;43.846;25.950;2023-04-03T14:32:18;10.30;;;4.80;;
20629;SDS011;17386;43.846;25.950;2023-04-03T14:34:44;7.47;;;4.93;;
20629;SDS011;17386;43.846;25.950;2023-04-03T14:37:14;9.23;;;5.53;;
20629;SDS011;17386;43.846;25.950;2023-04-03T14:39:45;8.88;;;4.85;;
20629;SDS011;17386;43.846;25.950;2023-04-03T14:42:15;9.43;;;5.05;;
20629;SDS011;17386;43.846;25.950;2023-04-03T14:44:43;10.32;;;6.25;;
20629;SDS011;17386;43.846;25.950;2023-04-03T14:47:12;8.82;;;4.85;;
20629;SDS011;17386;43.846;25.950;2023-04-03T14:49:40;15.63;;;5.13;;
20629;SDS011;17386;43.846;25.950;2023-04-03T14:52:06;10.02;;;5.28;;
20629;SDS011;17386;43.846;25.950;2023-04-03T14:55:03;15.18;;;6.25;;
20629;SDS011;17386;43.846;25.950;2023-04-03T14:57:31;13.85;;;5.60;;
20629;SDS011;17386;43.846;25.950;2023-04-03T14:59:56;12.52;;;4.95;;
20629;SDS011;17386;43.846;25.950;2023-04-03T15:02:30;13.32;;;6.35;;
20629;SDS011;17386;43.846;25.950;2023-04-03T15:05:04;14.13;;;5.10;;
20629;SDS011;17386;43.846;25.950;2023-04-03T15:07:34;13.13;;;5.07;;
20629;SDS011;17386;43.846;25.950;2023-04-03T15:12:46;10.90;;;4.90;;
20629;SDS011;17386;43.846;25.950;2023-04-03T15:15:13;9.88;;;5.18;;
20629;SDS011;17386;43.846;25.950;2023-04-03T15:17:40;10.65;;;4.95;;
20629;SDS011;17386;43.846;25.950;2023-04-03T15:20:17;9.93;;;4.72;;
20629;SDS011;17386;43.846;25.950;2023-04-03T15:22:44;10.25;;;4.80;;
20629;SDS011;17386;43.846;25.950;2023-04-03T15:25:10;10.48;;;5.35;;
20629;SDS011;17386;43.846;25.950;2023-04-03T15:27:36;14.70;;;5.57;;
20629;SDS011;17386;43.846;25.950;2023-04-03T15:30:03;15.00;;;5.53;;
20629;SDS011;17386;43.846;25.950;2023-04-03T15:32:30;15.10;;;6.93;;
20629;SDS011;17386;43.846;25.950;2023-04-03T15:34:56;11.70;;;5.90;;
20629;SDS011;17386;43.846;25.950;2023-04-03T15:37:21;14.15;;;6.10;;
20629;SDS011;17386;43.846;25.950;2023-04-03T15:39:46;16.55;;;6.65;;
20629;SDS011;17386;43.846;25.950;2023-04-03T15:42:12;15.20;;;6.38;;
20629;SDS011;17386;43.846;25.950;2023-04-03T15:44:37;13.25;;;5.68;;
20629;SDS011;17386;43.846;25.950;2023-04-03T15:47:03;21.23;;;7.45;;
20629;SDS011;17386;43.846;25.950;2023-04-03T15:49:29;11.85;;;5.53;;
20629;SDS011;17386;43.846;25.950;2023-04-03T15:51:57;13.10;;;6.10;;
20629;SDS011;17386;43.846;25.950;2023-04-03T15:54:23;15.90;;;6.18;;
20629;SDS011;17386;43.846;25.950;2023-04-03T15:56:50;12.68;;;5.63;;
20629;SDS011;17386;43.846;25.950;2023-04-03T15:59:16;12.50;;;5.88;;
20629;SDS011;17386;43.846;25.950;2023-04-03T16:01:41;13.00;;;6.20;;
20629;SDS011;17386;43.846;25.950;2023-04-03T16:04:07;14.80;;;6.70;;
20629;SDS011;17386;43.846;25.950;2023-04-03T16:06:34;16.88;;;6.85;;
20629;SDS011;17386;43.846;25.950;2023-04-03T16:09:00;16.75;;;6.53;;
20629;SDS011;17386;43.846;25.950;2023-04-03T16:11:26;13.23;;;5.78;;
20629;SDS011;17386;43.846;25.950;2023-04-03T16:13:51;13.05;;;6.13;;
20629;SDS011;17386;43.846;25.950;2023-04-03T16:16:17;10.90;;;5.63;;
20629;SDS011;17386;43.846;25.950;2023-04-03T16:18:43;9.63;;;5.28;;
20629;SDS011;17386;43.846;25.950;2023-04-03T16:21:11;13.13;;;5.78;;
20629;SDS011;17386;43.846;25.950;2023-04-03T16:23:38;11.65;;;5.70;;
20629;SDS011;17386;43.846;25.950;2023-04-03T16:26:04;13.55;;;5.88;;
20629;SDS011;17386;43.846;25.950;2023-04-03T16:28:30;12.15;;;6.28;;
20629;SDS011;17386;43.846;25.950;2023-04-03T16:30:55;13.70;;;6.07;;
20629;SDS011;17386;43.846;25.950;2023-04-03T16:33:21;12.63;;;5.18;;
20629;SDS011;17386;43.846;25.950;2023-04-03T16:35:47;15.32;;;5.82;;
20629;SDS011;17386;43.846;25.950;2023-04-03T16:38:13;13.02;;;6.20;;
20629;SDS011;17386;43.846;25.950;2023-04-03T16:40:40;12.55;;;5.57;;
20629;SDS011;17386;43.846;25.950;2023-04-03T16:43:06;14.98;;;6.35;;
20629;SDS011;17386;43.846;25.950;2023-04-03T16:45:31;10.18;;;5.60;;
20629;SDS011;17386;43.846;25.950;2023-04-03T16:47:57;11.68;;;5.45;;
20629;SDS011;17386;43.846;25.950;2023-04-03T16:50:22;10.98;;;5.38;;
20629;SDS011;17386;43.846;25.950;2023-04-03T16:52:48;12.15;;;5.63;;
20629;SDS011;17386;43.846;25.950;2023-04-03T16:55:13;12.63;;;6.05;;
20629;SDS011;17386;43.846;25.950;2023-04-03T16:57:38;10.27;;;5.43;;